Bandara Internasional Osaka, Jepang

08:50 AM JST on Oktober 23, 2014 (GMT +0900)
Tokura-nishi | Change Station
CLOSE
Current Station
Personal Weather Stations
Location: Toyonaka, OSAKA
Elevation: 16 ft
Nearby Weather Stations

Elev 16 ft 34.76 °N, 135.45 °E | Updated 0 second ago

Partly Cloudy
Mendung Sebagian
63.1 °F
Feels Like 63.1 °F
N
0.0
Angin Variable Angin from Arah Selatan
Gusts 1.2 mph

Siang Ini
High -- | Low -- °F
--% Chance of Precip.
Yesterday
High -- | Low -- °F
Precip. -- Inch
6:10 AM 5:14 PM
Waning Crescent, 1% visible
Tekanan 30.04 Inch
Jarak Pandang 6.2 Mil
Awan Few 2500 ft
Titik Embun 49 °F
Kelembaban 60%
Rainfall 0.00 Inch
Snow Depth Not available.
UV 0.0 out of 12
Pollen Not available.
Air Quality Not available.
Flu Activity Not available.
METAR RJOO 222300Z 32003KT 290V360 9999 FEW025 16/10 Q1017 RMK 1CU025 A3006

More Conditions Fewer Conditions

Tekanan 30.04 Inch
Jarak Pandang 6.2 Mil
Awan Few 2500 ft
Titik Embun 49 °F
Kelembaban 60%
Rainfall 0.00 Inch
Snow Depth Not available.
UV 0.0 out of 12
Pollen Not available.
Air Quality Not available.
Flu Activity Not available.
METAR RJOO 222300Z 32003KT 290V360 9999 FEW025 16/10 Q1017 RMK 1CU025 A3006

More Conditions Fewer Conditions

10-Day Weather Forecast

Almanac

Astronomi

Oct. 23, 2014 Rise Set
Actual Time 6:10 AM JST 5:14 PM JST
Civil Twilight 5:44 AM JST 5:40 PM JST
Nautical Twilight 5:15 AM JST 6:09 PM JST
Astronomical Twilight 4:45 AM JST 6:38 PM JST
Moon 5:15 AM JST (10/23) 4:52 PM JST (10/23)
Length Of Visible Light 11h 55m
Lama Satu Hari
11h 04m
Tomorrow will be 2m 2s shorter.
Waning Crescent, 1% of the Moon is Illuminated
Oct 22
Waning Crescent
Oct 23
New
Oct 30
Triwulan Pertama
Nov 6
Bulan Purnama
Nov 14
Kuartil Terakhir

Yesterday's Extremes

Country Highs Country Lows

Community

WunderPhotos

Upload Photos

1,764,080 photos uploaded!

WunderBlogs® & News

Nearby

Snow Depth

Not available.

Earthquake Activity

City Distance Mag. Time & Date
No recent earthquake activity has been reported nearby.
Minimum magnitude displayed is 2.5.

Coastal Water Temperatures

Lokasi Temperatur
No Stations Reporting

Nearby Weather Stations